createdAt,value
2019-01-31T00:02:29.456Z,59.89
2019-01-31T00:05:19.186Z,59.54
2019-01-31T00:08:05.812Z,59.48
2019-01-31T00:10:59.273Z,59.22
2019-01-31T00:13:47.888Z,58.89
2019-01-31T00:16:53.192Z,58.84
2019-01-31T00:19:31.001Z,58.93
2019-01-31T00:22:36.294Z,58.43
2019-01-31T00:25:17.050Z,58.11
2019-01-31T00:28:13.470Z,58.45
2019-01-31T00:31:15.607Z,58.45
2019-01-31T00:34:08.835Z,58.42
2019-01-31T00:37:11.564Z,57.88
2019-01-31T00:40:01.756Z,57.96
2019-01-31T00:43:08.939Z,58.03
2019-01-31T00:46:29.938Z,58.03
2019-01-31T00:49:27.580Z,58.09
2019-01-31T00:51:59.713Z,58.15
2019-01-31T00:54:43.774Z,58.17
2019-01-31T00:57:18.922Z,58.12
2019-01-31T00:59:53.965Z,57.90
2019-01-31T01:02:59.793Z,57.69
2019-01-31T01:05:57.793Z,57.56
2019-01-31T01:08:29.957Z,57.27
2019-01-31T01:11:16.190Z,57.11
2019-01-31T01:13:54.410Z,57.04
2019-01-31T01:16:35.766Z,57.05
2019-01-31T01:19:16.983Z,57.09
2019-01-31T01:22:21.205Z,56.90
2019-01-31T01:24:56.027Z,56.73
2019-01-31T01:28:12.147Z,56.84
2019-01-31T01:31:16.462Z,56.79
2019-01-31T01:34:00.492Z,56.77
2019-01-31T01:36:35.353Z,56.63
2019-01-31T01:39:19.201Z,56.49
2019-01-31T01:42:25.439Z,56.66
2019-01-31T01:45:14.201Z,56.75
2019-01-31T01:47:46.364Z,56.86
2019-01-31T01:50:39.937Z,56.81
2019-01-31T01:53:42.599Z,56.87
2019-01-31T01:56:32.520Z,56.95
2019-01-31T01:59:10.152Z,56.97
2019-01-31T02:02:23.838Z,56.82
2019-01-31T02:04:55.979Z,56.99
2019-01-31T02:08:01.977Z,57.05
2019-01-31T02:10:39.525Z,57.07
2019-01-31T02:13:20.575Z,56.94
2019-01-31T02:16:13.904Z,57.12
2019-01-31T02:18:46.144Z,57.13
2019-01-31T02:21:30.398Z,57.14
2019-01-31T02:24:11.662Z,57.23
2019-01-31T02:27:05.259Z,57.37
2019-01-31T02:29:46.186Z,57.52
2019-01-31T02:32:41.423Z,57.52
2019-01-31T02:35:39.067Z,57.53
2019-01-31T02:38:11.275Z,57.64
2019-01-31T02:41:15.292Z,57.48
2019-01-31T02:44:01.760Z,57.49
2019-01-31T02:46:42.692Z,57.63
2019-01-31T02:49:47.467Z,57.88
2019-01-31T02:52:34.684Z,57.97
2019-01-31T02:55:27.530Z,58.19
2019-01-31T02:58:14.820Z,58.22
2019-01-31T03:00:58.996Z,58.21
2019-01-31T03:03:39.880Z,58.19
2019-01-31T03:06:36.334Z,58.23
2019-01-31T03:09:32.990Z,58.21
2019-01-31T03:12:29.406Z,58.17
2019-01-31T03:15:01.818Z,58.27
2019-01-31T03:17:39.870Z,58.26
2019-01-31T03:20:40.904Z,58.22
2019-01-31T03:23:28.383Z,58.26
2019-01-31T03:26:00.671Z,58.50
2019-01-31T03:28:57.119Z,58.53
2019-01-31T03:31:45.702Z,58.48
2019-01-31T03:34:46.375Z,58.48
2019-01-31T03:37:33.635Z,58.38
2019-01-31T03:40:20.952Z,58.37
2019-01-31T03:46:26.170Z,58.46
2019-01-31T03:49:19.617Z,58.55
2019-01-31T03:52:25.545Z,58.49
2019-01-31T03:55:28.875Z,58.35
2019-01-31T03:58:31.338Z,58.49
2019-01-31T04:01:29.304Z,58.65
2019-01-31T04:04:04.265Z,58.74
2019-01-31T04:06:31.001Z,58.73
2019-01-31T04:08:57.791Z,58.68
2019-01-31T04:11:24.552Z,58.68
2019-01-31T04:13:51.259Z,58.60
2019-01-31T04:16:18.038Z,58.63
2019-01-31T04:18:44.761Z,58.74
2019-01-31T04:21:11.497Z,58.74
2019-01-31T04:23:38.309Z,58.85
2019-01-31T04:26:05.014Z,58.93
2019-01-31T04:28:31.728Z,58.97
2019-01-31T04:30:58.534Z,59.11
2019-01-31T04:33:25.293Z,58.99
2019-01-31T04:35:52.018Z,58.92
2019-01-31T04:38:19.976Z,59.00
2019-01-31T04:40:46.991Z,58.90
2019-01-31T04:43:13.718Z,58.65
2019-01-31T04:45:40.589Z,58.62
2019-01-31T04:48:07.438Z,58.73
2019-01-31T04:50:34.142Z,58.87
2019-01-31T04:53:00.993Z,58.88
2019-01-31T04:55:27.743Z,58.91
2019-01-31T04:57:54.464Z,58.92
2019-01-31T05:00:21.316Z,58.95
2019-01-31T05:02:48.076Z,58.79
2019-01-31T05:05:14.787Z,58.79
2019-01-31T05:07:41.567Z,58.90
2019-01-31T05:10:11.420Z,58.87
2019-01-31T05:12:38.137Z,58.92
2019-01-31T05:15:09.572Z,59.06
2019-01-31T05:17:36.292Z,59.04
2019-01-31T05:20:10.677Z,59.11
2019-01-31T05:22:37.466Z,59.10
2019-01-31T05:25:06.913Z,59.02
2019-01-31T05:27:33.619Z,58.89
2019-01-31T05:30:00.405Z,58.92
2019-01-31T05:32:27.125Z,59.04
2019-01-31T05:34:53.838Z,58.94
2019-01-31T05:37:20.640Z,59.04
2019-01-31T05:39:47.391Z,59.11
2019-01-31T05:42:14.165Z,59.20
2019-01-31T05:44:40.964Z,59.14
2019-01-31T05:47:07.689Z,59.12
2019-01-31T05:49:34.432Z,59.28
2019-01-31T05:52:01.407Z,59.10
2019-01-31T05:54:28.090Z,59.09
2019-01-31T05:56:54.826Z,59.23
2019-01-31T05:59:21.645Z,59.29
2019-01-31T06:01:48.365Z,59.32
2019-01-31T06:04:15.095Z,59.43
2019-01-31T06:06:41.889Z,59.54
2019-01-31T06:09:08.614Z,59.55
2019-01-31T06:11:35.347Z,59.46
2019-01-31T06:14:02.143Z,59.31
2019-01-31T06:16:28.865Z,59.17
2019-01-31T06:18:55.603Z,59.06
2019-01-31T06:21:22.391Z,59.21
2019-01-31T06:23:49.117Z,59.32
2019-01-31T06:26:15.872Z,59.42
2019-01-31T06:28:42.668Z,59.51
2019-01-31T06:31:09.406Z,59.47
2019-01-31T06:33:36.144Z,59.50
2019-01-31T06:36:02.964Z,59.44
2019-01-31T06:38:29.677Z,59.77
2019-01-31T06:40:56.415Z,59.56
2019-01-31T06:43:23.330Z,59.46
2019-01-31T06:45:50.047Z,59.49
2019-01-31T06:48:16.776Z,59.53
2019-01-31T06:50:43.587Z,59.76
2019-01-31T06:53:10.344Z,59.80
2019-01-31T06:55:37.079Z,59.75
2019-01-31T06:58:03.866Z,59.95
2019-01-31T07:00:30.608Z,59.80
2019-01-31T07:02:57.338Z,59.77
2019-01-31T07:05:24.148Z,59.79
2019-01-31T07:07:50.904Z,59.92
2019-01-31T07:10:23.293Z,59.89
2019-01-31T07:12:50.104Z,59.66
2019-01-31T07:15:16.835Z,59.68
2019-01-31T07:17:43.581Z,59.68
2019-01-31T07:20:15.926Z,59.89
2019-01-31T07:22:42.637Z,59.85
2019-01-31T07:25:19.062Z,59.71
2019-01-31T07:27:45.820Z,59.72
2019-01-31T07:30:18.732Z,59.82
2019-01-31T07:32:45.543Z,59.85
2019-01-31T07:35:13.155Z,59.84
2019-01-31T07:37:39.900Z,59.87
2019-01-31T07:40:13.756Z,59.84
2019-01-31T07:42:40.523Z,59.67
2019-01-31T07:45:26.978Z,59.70
2019-01-31T07:47:53.721Z,59.76
2019-01-31T07:50:20.460Z,59.87
2019-01-31T07:52:47.260Z,59.92
2019-01-31T07:55:14.017Z,60.00
2019-01-31T07:57:40.807Z,59.95
2019-01-31T08:00:21.178Z,60.53
2019-01-31T08:02:47.898Z,60.12
2019-01-31T08:05:17.957Z,60.07
2019-01-31T08:07:46.120Z,59.97
2019-01-31T08:10:29.513Z,59.83
2019-01-31T08:12:56.309Z,59.88
2019-01-31T08:15:23.066Z,59.71
2019-01-31T08:17:49.800Z,59.63
2019-01-31T08:20:19.075Z,59.67
2019-01-31T08:22:45.802Z,59.69
2019-01-31T08:25:19.522Z,59.86
2019-01-31T08:27:46.554Z,59.90
2019-01-31T08:30:37.905Z,59.86
2019-01-31T08:33:04.556Z,59.50
2019-01-31T08:35:31.295Z,59.47
2019-01-31T08:37:58.049Z,59.20
2019-01-31T08:40:24.853Z,59.09
2019-01-31T08:42:51.572Z,59.06
2019-01-31T08:45:18.411Z,59.24
2019-01-31T08:47:45.233Z,60.29
2019-01-31T08:50:18.095Z,59.30
2019-01-31T08:52:44.829Z,58.75
2019-01-31T08:55:11.648Z,58.73
2019-01-31T08:57:38.387Z,58.65
2019-01-31T09:00:15.304Z,58.65
2019-01-31T09:02:42.063Z,58.44
2019-01-31T09:05:08.797Z,58.30
2019-01-31T09:07:35.617Z,58.20
2019-01-31T09:10:06.579Z,58.20
2019-01-31T09:12:33.316Z,58.16
2019-01-31T09:15:00.306Z,58.03
2019-01-31T09:17:27.032Z,57.88
2019-01-31T09:19:53.772Z,57.98
2019-01-31T09:22:24.567Z,57.88
2019-01-31T09:25:05.840Z,57.18
2019-01-31T09:27:47.234Z,56.98
2019-01-31T09:30:27.681Z,56.76
2019-01-31T09:33:15.277Z,56.91
2019-01-31T09:36:02.874Z,56.97
2019-01-31T09:39:13.853Z,57.09
2019-01-31T09:41:54.937Z,57.30
2019-01-31T09:44:59.895Z,57.57
2019-01-31T09:47:59.419Z,57.45
2019-01-31T09:50:42.937Z,57.21
2019-01-31T09:53:24.284Z,56.50
2019-01-31T09:56:14.593Z,56.33
2019-01-31T09:58:49.609Z,56.20
2019-01-31T10:01:56.260Z,55.97
2019-01-31T10:08:10.488Z,55.84
2019-01-31T10:11:02.351Z,55.54
2019-01-31T10:13:56.001Z,55.94
2019-01-31T10:16:37.140Z,55.71
2019-01-31T10:19:33.215Z,55.67
2019-01-31T10:22:26.469Z,55.46
2019-01-31T10:25:45.855Z,55.45
2019-01-31T10:28:26.880Z,55.48
2019-01-31T10:31:17.245Z,55.08
2019-01-31T10:34:16.026Z,54.40
2019-01-31T10:37:12.312Z,54.38
2019-01-31T10:40:02.686Z,54.30
2019-01-31T10:43:09.972Z,53.72
2019-01-31T10:45:53.795Z,53.66
2019-01-31T10:48:48.003Z,54.05
2019-01-31T10:51:53.828Z,54.08
2019-01-31T10:54:43.938Z,53.94
2019-01-31T10:57:34.451Z,53.75
2019-01-31T11:00:09.692Z,53.32
2019-01-31T11:02:50.662Z,53.25
2019-01-31T11:05:31.320Z,52.92
2019-01-31T11:08:11.758Z,52.91
2019-01-31T11:11:02.243Z,52.68
2019-01-31T11:13:57.996Z,52.58
2019-01-31T11:16:45.490Z,52.96
2019-01-31T11:19:44.492Z,52.73
2019-01-31T11:22:41.313Z,52.56
2019-01-31T11:26:00.147Z,52.71
2019-01-31T11:29:01.435Z,52.41
2019-01-31T11:31:42.542Z,52.60
2019-01-31T11:34:32.707Z,52.46
2019-01-31T11:40:13.514Z,52.41
2019-01-31T11:43:11.961Z,51.84
2019-01-31T11:46:02.646Z,51.42
2019-01-31T11:48:34.887Z,51.25
2019-01-31T11:51:38.946Z,51.23
2019-01-31T11:54:29.247Z,51.47
2019-01-31T11:57:16.665Z,51.29
2019-01-31T11:59:43.456Z,51.41
2019-01-31T12:02:10.245Z,51.05
2019-01-31T12:04:37.097Z,50.69
2019-01-31T12:07:03.860Z,50.47
2019-01-31T12:09:30.622Z,50.42
2019-01-31T12:11:57.477Z,50.93
2019-01-31T12:14:24.223Z,51.10
2019-01-31T12:16:50.973Z,51.19
2019-01-31T12:19:17.767Z,51.46
2019-01-31T12:21:44.488Z,51.26
2019-01-31T12:24:16.585Z,51.59
2019-01-31T12:26:39.851Z,51.93
2019-01-31T12:29:06.591Z,51.91
2019-01-31T12:31:33.333Z,51.81
2019-01-31T12:34:00.350Z,52.26
2019-01-31T12:36:27.085Z,52.74
2019-01-31T12:38:55.046Z,52.52
2019-01-31T12:41:22.087Z,52.62
2019-01-31T12:43:48.825Z,52.72
2019-01-31T12:46:15.547Z,52.96
2019-01-31T12:48:42.365Z,52.81
2019-01-31T12:51:09.126Z,52.58
2019-01-31T12:53:35.898Z,52.61
2019-01-31T12:56:02.771Z,52.87
2019-01-31T12:58:33.706Z,52.97
2019-01-31T13:00:58.035Z,52.85
2019-01-31T13:03:24.846Z,53.20
2019-01-31T13:05:51.580Z,53.15
2019-01-31T13:08:18.904Z,53.06
2019-01-31T13:10:45.729Z,53.05
2019-01-31T13:13:12.474Z,53.04
2019-01-31T13:15:39.219Z,53.14
2019-01-31T13:18:06.110Z,52.85
2019-01-31T13:20:32.823Z,53.36
2019-01-31T13:22:59.555Z,53.62
2019-01-31T13:25:26.337Z,53.37
2019-01-31T13:27:53.088Z,53.23
2019-01-31T13:30:21.744Z,53.40
2019-01-31T13:32:49.454Z,53.26
2019-01-31T13:35:16.181Z,53.87
2019-01-31T13:37:43.031Z,53.65
2019-01-31T13:40:14.402Z,53.45
2019-01-31T13:42:41.238Z,53.55
2019-01-31T13:45:15.128Z,53.84
2019-01-31T13:47:41.936Z,53.86
2019-01-31T13:50:12.657Z,54.21
2019-01-31T13:52:39.483Z,54.32
2019-01-31T13:55:23.405Z,54.30
2019-01-31T13:57:50.141Z,54.71
2019-01-31T14:00:20.945Z,54.69
2019-01-31T14:02:47.700Z,54.67
2019-01-31T14:05:14.448Z,54.42
2019-01-31T14:07:41.256Z,54.16
2019-01-31T14:10:12.759Z,54.08
2019-01-31T14:12:39.507Z,53.57
2019-01-31T14:15:11.259Z,53.47
2019-01-31T14:17:38.072Z,52.98
2019-01-31T14:20:10.232Z,52.74
2019-01-31T14:22:42.966Z,52.53
2019-01-31T14:25:06.358Z,52.73
2019-01-31T14:27:33.301Z,52.80
2019-01-31T14:30:00.334Z,52.69
2019-01-31T14:32:27.140Z,52.53
2019-01-31T14:34:53.886Z,52.51
2019-01-31T14:37:20.626Z,52.41
2019-01-31T14:39:47.395Z,52.33
2019-01-31T14:42:14.110Z,52.32
2019-01-31T14:44:40.887Z,52.60
2019-01-31T14:47:07.672Z,52.52
2019-01-31T14:49:34.507Z,52.57
2019-01-31T14:52:01.224Z,52.64
2019-01-31T14:54:28.116Z,52.55
2019-01-31T14:56:54.832Z,52.84
2019-01-31T14:59:21.579Z,52.91
2019-01-31T15:02:00.156Z,52.86
2019-01-31T15:04:35.389Z,52.74
2019-01-31T15:07:08.615Z,52.60
2019-01-31T15:09:40.960Z,52.73
2019-01-31T15:12:13.279Z,52.72
2019-01-31T15:14:47.526Z,52.22
2019-01-31T15:17:20.851Z,52.46
2019-01-31T15:19:57.551Z,52.43
2019-01-31T15:22:24.376Z,52.26
2019-01-31T15:24:51.100Z,52.31
2019-01-31T15:27:17.854Z,52.10
2019-01-31T15:29:50.775Z,52.17
2019-01-31T15:32:19.860Z,52.22
2019-01-31T15:34:49.183Z,52.00
2019-01-31T15:37:24.588Z,51.99
2019-01-31T15:39:59.441Z,52.04
2019-01-31T15:42:31.129Z,51.92
2019-01-31T15:44:57.840Z,52.16
2019-01-31T15:47:24.607Z,52.40
2019-01-31T15:49:51.457Z,52.62
2019-01-31T15:52:18.192Z,52.48
2019-01-31T15:54:48.323Z,52.51
2019-01-31T15:57:16.829Z,52.57
2019-01-31T15:59:43.644Z,52.59
2019-01-31T16:02:10.380Z,52.88
2019-01-31T16:04:37.205Z,52.96
2019-01-31T16:07:03.956Z,53.13
2019-01-31T16:09:30.741Z,53.17
2019-01-31T16:11:59.743Z,53.23
2019-01-31T16:14:26.124Z,53.44
2019-01-31T16:16:52.806Z,53.61
2019-01-31T16:19:19.648Z,53.68
2019-01-31T16:21:46.487Z,53.81
2019-01-31T16:24:13.226Z,54.07
2019-01-31T16:26:40.135Z,54.04
2019-01-31T16:29:06.874Z,54.31
2019-01-31T16:31:33.611Z,54.55
2019-01-31T16:34:00.407Z,54.77
2019-01-31T16:36:27.241Z,54.85
2019-01-31T16:38:53.971Z,55.11
2019-01-31T16:41:20.770Z,55.32
2019-01-31T16:43:47.488Z,55.38
2019-01-31T16:46:14.216Z,55.49
2019-01-31T16:48:41.049Z,55.65
2019-01-31T16:51:07.798Z,56.14
2019-01-31T16:53:34.526Z,56.37
2019-01-31T16:56:01.413Z,56.47
2019-01-31T16:58:28.155Z,56.43
2019-01-31T17:00:54.888Z,56.56
2019-01-31T17:03:21.760Z,56.75
2019-01-31T17:05:48.472Z,57.13
2019-01-31T17:08:15.215Z,57.17
2019-01-31T17:10:42.046Z,57.07
2019-01-31T17:13:08.771Z,56.92
2019-01-31T17:15:35.544Z,56.92
2019-01-31T17:18:02.354Z,56.17
2019-01-31T17:20:36.227Z,55.73
2019-01-31T17:23:02.905Z,55.60
2019-01-31T17:25:29.776Z,55.55
2019-01-31T17:27:56.530Z,55.29
2019-01-31T17:30:26.570Z,55.32
2019-01-31T17:32:53.473Z,55.25
2019-01-31T17:35:20.214Z,54.93
2019-01-31T17:37:48.359Z,54.97
2019-01-31T17:40:26.316Z,55.12
2019-01-31T17:42:53.055Z,55.05
2019-01-31T17:45:30.027Z,54.88
2019-01-31T17:47:51.866Z,54.92
2019-01-31T17:50:21.794Z,55.10
2019-01-31T17:52:48.737Z,55.21
2019-01-31T17:55:19.949Z,55.36
2019-01-31T17:57:46.711Z,55.49
2019-01-31T18:00:29.250Z,55.15
2019-01-31T18:02:56.056Z,54.88
2019-01-31T18:05:24.619Z,54.98
2019-01-31T18:07:53.267Z,55.22
2019-01-31T18:10:22.275Z,55.53
2019-01-31T18:12:49.025Z,55.43
2019-01-31T18:15:18.849Z,55.33
2019-01-31T18:17:45.696Z,55.42
2019-01-31T18:20:18.410Z,55.31
2019-01-31T18:22:45.205Z,55.03
2019-01-31T18:25:12.081Z,55.10
2019-01-31T18:27:38.758Z,55.26
2019-01-31T18:30:11.054Z,55.53
2019-01-31T18:32:37.792Z,55.72
2019-01-31T18:35:08.549Z,55.45
2019-01-31T18:37:35.330Z,55.29
2019-01-31T18:40:02.750Z,54.93
2019-01-31T18:42:29.727Z,54.83
2019-01-31T18:44:56.634Z,54.42
2019-01-31T18:47:25.201Z,54.64
2019-01-31T18:49:51.972Z,54.74
2019-01-31T18:52:18.752Z,54.75
2019-01-31T18:54:45.480Z,54.56
2019-01-31T18:57:12.870Z,54.43
2019-01-31T18:59:39.883Z,54.58
2019-01-31T19:02:06.617Z,54.68
2019-01-31T19:04:33.339Z,54.50
2019-01-31T19:07:00.254Z,54.40
2019-01-31T19:09:27.017Z,54.56
2019-01-31T19:11:53.751Z,54.83
2019-01-31T19:14:20.552Z,54.38
2019-01-31T19:16:47.498Z,54.41
2019-01-31T19:19:14.225Z,54.75
2019-01-31T19:21:41.010Z,54.66
2019-01-31T19:24:07.740Z,54.73
2019-01-31T19:26:34.479Z,55.01
2019-01-31T19:29:01.351Z,54.95
2019-01-31T19:31:28.094Z,54.95
2019-01-31T19:33:54.862Z,55.21
2019-01-31T19:36:21.631Z,55.15
2019-01-31T19:38:48.361Z,55.08
2019-01-31T19:41:15.091Z,55.02
2019-01-31T19:43:41.899Z,55.17
2019-01-31T19:46:16.186Z,55.24
2019-01-31T19:48:37.173Z,55.36
2019-01-31T19:51:03.981Z,55.28
2019-01-31T19:53:30.725Z,55.48
2019-01-31T19:55:57.473Z,55.57
2019-01-31T19:58:24.304Z,55.71
2019-01-31T20:00:51.031Z,56.01
2019-01-31T20:03:17.778Z,55.91
2019-01-31T20:05:44.579Z,56.26
2019-01-31T20:08:11.309Z,56.16
2019-01-31T20:10:38.061Z,56.08
2019-01-31T20:13:04.869Z,56.03
2019-01-31T20:15:31.601Z,56.24
2019-01-31T20:17:58.344Z,56.33
2019-01-31T20:20:27.550Z,56.30
2019-01-31T20:22:54.766Z,56.29
2019-01-31T20:25:21.509Z,56.31
2019-01-31T20:27:48.295Z,56.69
2019-01-31T20:30:24.722Z,56.67
2019-01-31T20:32:52.309Z,56.60
2019-01-31T20:35:21.149Z,56.92
2019-01-31T20:37:47.889Z,56.78
2019-01-31T20:40:27.084Z,56.77
2019-01-31T20:42:53.809Z,56.85
2019-01-31T20:45:20.535Z,56.90
2019-01-31T20:47:47.915Z,56.97
2019-01-31T20:50:19.209Z,56.96
2019-01-31T20:52:45.943Z,56.98
2019-01-31T20:55:14.364Z,56.93
2019-01-31T20:57:41.217Z,56.86
2019-01-31T21:00:16.432Z,56.98
2019-01-31T21:02:43.166Z,57.02
2019-01-31T21:05:10.383Z,56.94
2019-01-31T21:07:37.163Z,57.18
2019-01-31T21:10:08.318Z,57.18
2019-01-31T21:12:35.043Z,57.11
2019-01-31T21:15:01.856Z,57.21
2019-01-31T21:17:28.583Z,57.28
2019-01-31T21:19:55.318Z,57.23
2019-01-31T21:22:22.105Z,57.27
2019-01-31T21:24:48.833Z,57.45
2019-01-31T21:27:15.561Z,57.63
2019-01-31T21:29:42.424Z,57.66
2019-01-31T21:32:09.167Z,57.80
2019-01-31T21:34:35.931Z,57.92
2019-01-31T21:37:04.657Z,57.95
2019-01-31T21:39:31.268Z,58.11
2019-01-31T21:41:58.007Z,58.25
2019-01-31T21:44:24.831Z,58.17
2019-01-31T21:47:02.431Z,58.18
2019-01-31T21:49:20.106Z,58.21
2019-01-31T21:51:46.913Z,58.20
2019-01-31T21:54:13.621Z,58.26
2019-01-31T21:56:40.339Z,58.06
2019-01-31T21:59:08.889Z,58.00
2019-01-31T22:01:35.776Z,58.14
2019-01-31T22:04:02.496Z,58.22
2019-01-31T22:06:29.295Z,58.25
2019-01-31T22:08:56.021Z,58.14
2019-01-31T22:11:22.738Z,58.19
2019-01-31T22:13:49.559Z,58.29
2019-01-31T22:16:16.272Z,58.35
2019-01-31T22:18:43.015Z,58.49
2019-01-31T22:21:09.794Z,58.67
2019-01-31T22:23:36.534Z,58.84
2019-01-31T22:26:03.265Z,59.00
2019-01-31T22:28:30.051Z,59.21
2019-01-31T22:30:56.770Z,59.26
2019-01-31T22:33:23.505Z,59.30
2019-01-31T22:35:50.305Z,59.38
2019-01-31T22:38:17.042Z,59.56
2019-01-31T22:40:43.791Z,59.56
2019-01-31T22:43:10.573Z,59.85
2019-01-31T22:45:37.318Z,59.76
2019-01-31T22:48:04.681Z,60.07
2019-01-31T22:50:31.501Z,60.05
2019-01-31T22:52:58.225Z,60.23
2019-01-31T22:55:25.553Z,60.25
2019-01-31T22:57:52.536Z,60.25
2019-01-31T23:00:42.371Z,60.10
2019-01-31T23:03:09.292Z,60.29
2019-01-31T23:05:36.024Z,60.46
2019-01-31T23:08:02.754Z,60.35
2019-01-31T23:10:29.569Z,60.36
2019-01-31T23:12:56.305Z,60.49
2019-01-31T23:15:23.040Z,60.62
2019-01-31T23:17:49.820Z,60.70
2019-01-31T23:20:16.555Z,60.74
2019-01-31T23:22:43.325Z,60.72
2019-01-31T23:25:10.172Z,60.61
2019-01-31T23:27:36.905Z,60.64
2019-01-31T23:30:11.912Z,60.69
2019-01-31T23:32:38.644Z,60.57
2019-01-31T23:35:07.776Z,60.82
2019-01-31T23:37:34.566Z,60.79
2019-01-31T23:40:01.407Z,60.75
2019-01-31T23:42:28.220Z,60.73
2019-01-31T23:44:54.989Z,60.63
2019-01-31T23:47:21.743Z,60.55
2019-01-31T23:49:48.456Z,60.52
2019-01-31T23:52:15.246Z,60.35
2019-01-31T23:54:41.998Z,60.40
2019-01-31T23:57:08.721Z,60.55
2019-01-31T23:59:35.508Z,60.73
